Time;durP1;ratioP1;P1;durP2;ratioP2;P2;SDS_P1;SDS_P2;PMS_P1;PMS_P2;Temp;Humidity;BMP_temperature;BMP_pressure;BME280_temperature;BME280_humidity;BME280_pressure;Samples;Min_cycle;Max_cycle;Signal;HPM_P1;HPM_P2
2021/11/20 00:01:38;;;;;;;10.02;4.18;;;;;;;2.85;100.00;97694.88;4945798;28;20129;-69
2021/11/20 00:04:28;;;;;;;8.13;3.88;;;;;;;2.95;100.00;97683.31;4946713;28;20073;-76
2021/11/20 00:07:13;;;;;;;7.30;3.50;;;;;;;2.99;100.00;97665.78;4947422;29;20061;-63
2021/11/20 00:09:57;;;;;;;5.18;3.50;;;;;;;2.97;100.00;97667.59;4940935;28;20089;-67
2021/11/20 00:12:43;;;;;;;7.43;4.35;;;;;;;2.97;100.00;97660.56;4946631;28;20606;-65
2021/11/20 00:15:33;;;;;;;8.48;4.35;;;;;;;2.98;100.00;97656.22;4946406;28;20523;-65
2021/11/20 00:18:20;;;;;;;6.93;3.78;;;;;;;3.01;100.00;97636.06;4959294;28;20534;-66
2021/11/20 00:21:18;;;;;;;8.32;4.20;;;;;;;3.06;100.00;97621.13;4945758;28;20082;-65
2021/11/20 00:24:13;;;;;;;4.38;2.70;;;;;;;2.93;100.00;97601.34;4955434;28;20812;-64
2021/11/20 00:27:01;;;;;;;8.02;4.68;;;;;;;3.01;100.00;97594.16;4944872;28;20113;-68
2021/11/20 00:29:57;;;;;;;5.85;3.67;;;;;;;3.10;100.00;97580.88;4958097;28;20081;-64
2021/11/20 00:33:14;;;;;;;5.82;3.92;;;;;;;3.09;100.00;97573.06;4942274;28;20058;-64
2021/11/20 00:36:01;;;;;;;7.78;3.30;;;;;;;3.03;100.00;97571.47;4946181;28;20094;-66
2021/11/20 00:38:47;;;;;;;6.47;3.83;;;;;;;3.11;100.00;97550.31;4942933;28;20046;-66
2021/11/20 00:41:33;;;;;;;7.03;3.92;;;;;;;3.11;100.00;97532.84;4943371;29;20139;-67
2021/11/20 00:44:22;;;;;;;6.88;3.72;;;;;;;3.10;100.00;97522.41;4951051;28;20061;-70
2021/11/20 00:47:06;;;;;;;8.43;4.18;;;;;;;3.04;100.00;97499.88;4946752;28;20533;-63
2021/11/20 00:49:52;;;;;;;5.38;3.28;;;;;;;3.06;100.00;97502.47;4943403;28;20062;-62
2021/11/20 00:52:37;;;;;;;6.28;3.45;;;;;;;3.06;100.00;97500.72;4943862;28;20054;-75
2021/11/20 00:55:25;;;;;;;8.40;4.13;;;;;;;3.04;100.00;97472.84;4945773;28;20054;-64
2021/11/20 00:58:11;;;;;;;5.55;2.85;;;;;;;3.03;100.00;97471.13;4945225;29;20281;-64
2021/11/20 01:00:58;;;;;;;7.93;4.43;;;;;;;3.06;100.00;97458.84;4931829;29;20115;-64
2021/11/20 01:03:45;;;;;;;6.93;3.08;;;;;;;3.03;100.00;97453.69;4922182;28;20053;-65
2021/11/20 01:06:30;;;;;;;6.15;2.97;;;;;;;3.02;100.00;97438.00;4943489;28;20047;-73
2021/11/20 01:09:23;;;;;;;9.77;3.53;;;;;;;2.98;100.00;97429.41;4947054;28;20066;-67
2021/11/20 01:12:13;;;;;;;6.78;3.50;;;;;;;2.91;100.00;97421.75;4941574;28;20484;-65
2021/11/20 01:15:00;;;;;;;7.90;3.53;;;;;;;2.87;100.00;97405.28;4941033;28;20134;-65
2021/11/20 01:17:48;;;;;;;6.88;3.72;;;;;;;2.80;100.00;97387.16;4946734;28;20447;-74
2021/11/20 01:20:34;;;;;;;6.28;3.22;;;;;;;2.73;100.00;97396.09;4942666;28;20058;-67
2021/11/20 01:23:22;;;;;;;8.43;3.08;;;;;;;2.67;100.00;97389.28;4920756;28;20054;-67
2021/11/20 01:26:12;;;;;;;7.07;3.42;;;;;;;2.66;100.00;97364.03;4930358;29;20055;-65
2021/11/20 01:29:08;;;;;;;5.40;2.92;;;;;;;2.61;100.00;97349.34;4919011;28;20050;-67
2021/11/20 01:32:04;;;;;;;7.05;3.03;;;;;;;2.71;100.00;97354.28;4950674;28;20078;-74
2021/11/20 01:34:50;;;;;;;7.07;3.30;;;;;;;2.64;100.00;97333.56;4949198;28;20050;-71
2021/11/20 01:37:38;;;;;;;5.63;3.10;;;;;;;2.74;100.00;97324.56;4942620;28;20105;-72
2021/11/20 01:40:28;;;;;;;8.30;3.50;;;;;;;2.81;100.00;97313.03;4946611;28;20140;-68
2021/11/20 01:43:15;;;;;;;5.53;2.83;;;;;;;2.68;100.00;97309.91;4931820;29;20115;-68
2021/11/20 01:46:04;;;;;;;4.75;2.80;;;;;;;2.64;100.00;97279.50;4946862;28;20102;-69
2021/11/20 01:49:20;;;;;;;7.30;3.17;;;;;;;2.81;100.00;97268.56;4936973;28;20058;-68
2021/11/20 01:52:26;;;;;;;6.38;2.83;;;;;;;2.72;100.00;97261.81;4930993;29;20093;-66
2021/11/20 01:55:19;;;;;;;4.40;2.60;;;;;;;2.57;100.00;97236.09;4945276;28;20415;-69
2021/11/20 01:58:29;;;;;;;6.45;2.95;;;;;;;2.82;100.00;97231.00;4935133;28;20131;-67
2021/11/20 02:01:21;;;;;;;5.80;2.75;;;;;;;2.96;100.00;97227.06;4928189;28;20098;-66
2021/11/20 02:04:35;;;;;;;5.15;2.90;;;;;;;3.04;100.00;97205.88;4920916;29;20131;-73
2021/11/20 02:07:44;;;;;;;4.85;3.00;;;;;;;3.01;100.00;97196.38;4947680;28;20105;-67
2021/11/20 02:10:48;;;;;;;5.07;2.47;;;;;;;2.99;100.00;97192.09;4967189;28;20063;-70
2021/11/20 02:13:35;;;;;;;5.50;3.10;;;;;;;2.96;100.00;97182.59;4941500;28;20053;-68
2021/11/20 02:16:31;;;;;;;5.57;2.45;;;;;;;2.97;100.00;97165.13;4957922;28;20062;-66
2021/11/20 02:19:28;;;;;;;5.13;2.50;;;;;;;3.07;100.00;97156.06;4948032;28;20058;-72
2021/11/20 02:22:52;;;;;;;6.30;3.00;;;;;;;2.92;100.00;97133.88;4949469;28;20426;-67
2021/11/20 02:26:18;;;;;;;5.78;2.58;;;;;;;2.96;100.00;97139.84;4949094;28;20178;-72
2021/11/20 02:29:16;;;;;;;6.32;2.72;;;;;;;2.89;100.00;97107.81;4919626;29;20580;-65
2021/11/20 02:32:29;;;;;;;3.95;2.15;;;;;;;2.90;100.00;97111.28;4932457;28;20058;-64
2021/11/20 02:35:27;;;;;;;3.88;2.05;;;;;;;2.96;100.00;97106.69;4934996;28;20054;-71
2021/11/20 02:38:46;;;;;;;4.47;2.38;;;;;;;2.94;100.00;97105.91;4943616;28;20086;-64
2021/11/20 02:41:35;;;;;;;3.67;1.75;;;;;;;2.88;100.00;97093.00;4931199;29;20094;-64
2021/11/20 02:44:23;;;;;;;4.78;2.25;;;;;;;2.89;100.00;97079.03;4943665;28;20753;-64
2021/11/20 02:47:25;;;;;;;4.88;2.35;;;;;;;3.04;100.00;97059.34;4922223;28;20058;-63
2021/11/20 02:50:12;;;;;;;4.45;2.10;;;;;;;3.11;100.00;97050.38;4962465;28;20516;-73
2021/11/20 02:52:57;;;;;;;;;;;;;;;3.12;100.00;97042.47;4950166;29;20054;-65
2021/11/20 02:55:46;;;;;;;2.38;1.50;;;;;;;3.20;100.00;97029.09;4951755;28;19973;-67
2021/11/20 02:58:32;;;;;;;2.75;1.50;;;;;;;3.17;100.00;97018.78;4946552;28;20171;-74
2021/11/20 03:01:24;;;;;;;4.47;1.92;;;;;;;3.29;100.00;97007.88;4931771;29;20059;-66
2021/11/20 03:04:12;;;;;;;4.15;1.75;;;;;;;3.25;100.00;97001.88;4953726;28;20524;-76
2021/11/20 03:06:59;;;;;;;3.00;1.50;;;;;;;3.17;100.00;96988.19;4935438;28;20499;-70
2021/11/20 03:09:46;;;;;;;2.63;1.58;;;;;;;3.16;100.00;96969.94;4943907;29;20472;-65
2021/11/20 03:12:42;;;;;;;5.15;2.42;;;;;;;3.08;100.00;96967.59;4934856;28;20073;-68
2021/11/20 03:15:27;;;;;;;2.90;1.40;;;;;;;3.17;100.00;96964.63;4943060;28;20071;-65
2021/11/20 03:18:13;;;;;;;3.55;1.42;;;;;;;3.15;100.00;96949.91;4944234;28;20070;-69
2021/11/20 03:20:58;;;;;;;2.35;1.50;;;;;;;3.12;100.00;96935.16;4946841;28;20155;-62
2021/11/20 03:23:49;;;;;;;4.07;1.42;;;;;;;3.30;100.00;96924.03;4945108;28;20065;-66
2021/11/20 03:26:36;;;;;;;3.83;1.90;;;;;;;3.36;100.00;96917.72;4952275;28;20074;-71
2021/11/20 03:29:23;;;;;;;5.38;1.98;;;;;;;3.25;100.00;96912.03;4941018;28;20055;-68
2021/11/20 03:32:10;;;;;;;2.92;1.42;;;;;;;3.27;100.00;96903.22;4920334;28;20811;-67
2021/11/20 03:34:55;;;;;;;5.25;1.80;;;;;;;3.43;100.00;96899.09;4933953;28;20091;-68
2021/11/20 03:37:41;;;;;;;2.35;1.58;;;;;;;3.53;100.00;96889.97;4956704;28;20074;-68
2021/11/20 03:40:27;;;;;;;3.88;1.88;;;;;;;3.68;100.00;96873.66;4945317;28;20154;-65
2021/11/20 03:43:14;;;;;;;3.63;2.20;;;;;;;3.68;100.00;96870.22;4934433;28;20086;-66
2021/11/20 03:45:58;;;;;;;3.67;2.20;;;;;;;3.66;100.00;96858.94;4946520;28;20066;-66
2021/11/20 03:48:43;;;;;;;2.78;1.90;;;;;;;3.81;100.00;96853.91;4946336;28;20520;-67
2021/11/20 03:51:30;;;;;;;3.72;2.40;;;;;;;3.93;100.00;96840.34;4921845;29;20267;-71
2021/11/20 03:54:16;;;;;;;6.00;2.80;;;;;;;3.78;100.00;96827.88;4961310;28;20074;-67
2021/11/20 03:57:03;;;;;;;3.50;2.00;;;;;;;3.74;100.00;96814.94;4942927;28;20431;-66
2021/11/20 03:59:51;;;;;;;4.30;2.38;;;;;;;3.72;100.00;96809.75;4930192;29;20066;-72
2021/11/20 04:02:38;;;;;;;4.10;2.40;;;;;;;3.82;100.00;96798.00;4956432;28;20415;-67
2021/11/20 04:05:24;;;;;;;3.92;2.22;;;;;;;3.87;100.00;96779.47;4937332;29;20054;-68
2021/11/20 04:08:13;;;;;;;3.95;2.33;;;;;;;3.85;100.00;96770.81;4952331;28;20058;-66
2021/11/20 04:10:58;;;;;;;4.45;2.45;;;;;;;3.93;100.00;96763.50;4935693;29;20101;-66
2021/11/20 04:13:50;;;;;;;4.03;2.42;;;;;;;3.85;100.00;96735.00;4939954;28;20492;-68
2021/11/20 04:16:35;;;;;;;4.07;2.38;;;;;;;4.02;100.00;96744.75;4940160;28;20098;-69
2021/11/20 04:19:22;;;;;;;3.28;1.88;;;;;;;4.00;100.00;96736.94;4916711;28;20142;-64
2021/11/20 04:22:08;;;;;;;4.25;2.20;;;;;;;4.09;100.00;96728.72;4946767;28;20162;-64
2021/11/20 04:24:54;;;;;;;4.30;2.03;;;;;;;3.95;100.00;96719.72;4934971;29;20555;-66
2021/11/20 04:28:03;;;;;;;2.72;1.70;;;;;;;3.87;100.00;96708.72;4947774;28;20090;-67
2021/11/20 04:30:57;;;;;;;2.95;1.90;;;;;;;4.02;100.00;96706.31;4939160;28;20097;-65
2021/11/20 04:33:44;;;;;;;;;;;;;;;4.13;100.00;96692.72;4944715;28;20775;-69
2021/11/20 04:36:52;;;;;;;3.88;2.15;;;;;;;4.12;100.00;96689.25;4946418;28;19929;-70
2021/11/20 04:39:42;;;;;;;3.78;1.90;;;;;;;4.03;100.00;96679.16;4942369;28;20109;-71
2021/11/20 04:42:28;;;;;;;5.60;2.40;;;;;;;3.87;100.00;96666.78;4959304;28;20114;-66
2021/11/20 04:45:17;;;;;;;2.83;1.77;;;;;;;4.03;100.00;96665.19;4942454;28;20054;-68
2021/11/20 04:48:05;;;;;;;3.72;1.90;;;;;;;3.90;100.00;96656.19;4956448;28;20539;-68
2021/11/20 04:51:21;;;;;;;4.70;2.20;;;;;;;4.02;100.00;96659.13;4884992;29;20050;-65
2021/11/20 04:54:06;;;;;;;3.33;1.90;;;;;;;4.01;100.00;96639.09;4886976;29;20085;-67
2021/11/20 04:56:52;;;;;;;3.92;1.67;;;;;;;4.04;100.00;96638.09;4862034;29;20571;-65
2021/11/20 04:59:37;;;;;;;3.72;2.15;;;;;;;4.02;100.00;96632.91;4874647;29;20089;-73
2021/11/20 05:02:25;;;;;;;3.58;1.70;;;;;;;4.09;100.00;96620.38;4860393;29;20115;-67
2021/11/20 05:05:11;;;;;;;2.42;1.90;;;;;;;4.09;100.00;96617.75;4879652;29;20141;-64
2021/11/20 05:07:56;;;;;;;3.33;1.70;;;;;;;4.15;100.00;96607.84;4887583;29;20092;-64
2021/11/20 05:10:41;;;;;;;;;;;;;;;4.21;100.00;96599.72;4874272;29;20057;-62
2021/11/20 05:13:29;;;;;;;4.40;2.05;;;;;;;4.14;100.00;96600.91;4885559;29;19999;-64
2021/11/20 05:16:17;;;;;;;3.28;1.95;;;;;;;4.17;100.00;96592.06;4862210;29;20117;-64
2021/11/20 05:19:05;;;;;;;3.15;1.92;;;;;;;4.27;100.00;96590.69;4870104;29;20055;-66
2021/11/20 05:22:06;;;;;;;3.03;1.75;;;;;;;4.22;100.00;96575.19;4872610;29;20088;-66
2021/11/20 05:24:54;;;;;;;6.28;1.95;;;;;;;4.31;100.00;96574.75;4847801;29;20183;-64
2021/11/20 05:27:42;;;;;;;2.97;1.90;;;;;;;4.28;100.00;96574.91;4905234;29;20130;-64
2021/11/20 05:30:32;;;;;;;3.00;1.50;;;;;;;4.31;100.00;96563.41;4939242;28;20102;-63
2021/11/20 05:33:26;;;;;;;3.30;2.08;;;;;;;4.39;100.00;96556.91;4948051;28;20078;-63
2021/11/20 05:36:17;;;;;;;3.58;1.52;;;;;;;4.16;100.00;96548.41;4935208;28;20054;-62
2021/11/20 05:39:04;;;;;;;3.78;1.83;;;;;;;4.03;100.00;96542.88;4940012;28;20552;-63
2021/11/20 05:41:52;;;;;;;3.33;1.90;;;;;;;4.10;100.00;96543.44;4948340;28;20062;-65
2021/11/20 05:44:39;;;;;;;2.92;1.77;;;;;;;4.18;100.00;96529.06;4952148;28;20531;-73
2021/11/20 05:47:33;;;;;;;2.95;2.00;;;;;;;4.15;100.00;96516.09;4941573;28;20097;-66
2021/11/20 05:50:21;;;;;;;3.67;2.03;;;;;;;4.19;100.00;96520.28;4953658;28;20134;-71
2021/11/20 05:53:18;;;;;;;4.60;2.00;;;;;;;4.02;100.00;96516.75;4951878;28;20053;-73
2021/11/20 05:56:04;;;;;;;4.90;2.38;;;;;;;4.06;100.00;96523.53;4936842;28;20067;-65
2021/11/20 05:59:08;;;;;;;5.88;3.13;;;;;;;4.14;100.00;96500.44;4930346;29;20138;-65
2021/11/20 06:01:57;;;;;;;6.95;2.72;;;;;;;4.27;100.00;96497.16;4950983;28;20125;-66
2021/11/20 06:04:45;;;;;;;5.50;3.25;;;;;;;4.29;100.00;96492.72;4954712;28;20050;-66
2021/11/20 06:07:31;;;;;;;5.85;3.03;;;;;;;4.21;100.00;96494.00;4949673;29;20133;-66
2021/11/20 06:10:17;;;;;;;5.18;2.58;;;;;;;4.11;100.00;96483.09;4917053;29;20539;-73
2021/11/20 06:13:07;;;;;;;5.43;3.20;;;;;;;4.16;100.00;96485.50;4934287;29;20087;-65
2021/11/20 06:16:02;;;;;;;6.43;2.63;;;;;;;4.19;100.00;96480.09;4941728;28;20137;-69
2021/11/20 06:18:47;;;;;;;4.25;2.28;;;;;;;4.18;100.00;96476.66;4949316;28;20058;-74
2021/11/20 06:21:33;;;;;;;3.90;2.63;;;;;;;4.16;100.00;96473.22;4932739;29;20103;-63
2021/11/20 06:24:21;;;;;;;5.05;2.80;;;;;;;4.06;100.00;96463.25;4928892;29;20053;-62
2021/11/20 06:27:06;;;;;;;4.38;2.40;;;;;;;4.12;100.00;96465.59;4948504;28;20050;-63
2021/11/20 06:29:55;;;;;;;2.78;2.08;;;;;;;4.22;100.00;96465.09;4961874;28;20053;-65
2021/11/20 06:32:42;;;;;;;4.30;2.47;;;;;;;4.26;100.00;96457.91;4947988;28;20050;-74
2021/11/20 06:35:51;;;;;;;6.32;3.25;;;;;;;4.30;100.00;96457.72;4939247;29;20082;-67
2021/11/20 06:38:43;;;;;;;5.63;2.88;;;;;;;4.28;100.00;96459.53;4936539;29;20062;-66
2021/11/20 06:41:28;;;;;;;5.45;3.05;;;;;;;4.19;100.00;96433.78;4943420;28;20057;-66
2021/11/20 06:44:13;;;;;;;6.57;3.20;;;;;;;4.24;100.00;96444.06;4925730;29;20051;-67
2021/11/20 06:46:59;;;;;;;8.77;4.75;;;;;;;4.11;100.00;96442.91;4930803;28;20070;-67
2021/11/20 06:49:44;;;;;;;8.75;5.07;;;;;;;4.26;100.00;96431.69;4946221;28;20061;-66
2021/11/20 06:52:29;;;;;;;11.23;5.78;;;;;;;4.34;100.00;96426.94;4944675;28;20057;-69
2021/11/20 06:55:27;;;;;;;12.40;6.60;;;;;;;4.23;100.00;96422.22;4942918;28;20049;-65
2021/11/20 07:01:47;;;;;;;14.65;8.63;;;;;;;4.32;100.00;96420.94;4942618;28;20784;-67
2021/11/20 07:04:35;;;;;;;22.00;11.57;;;;;;;4.12;100.00;96423.66;4949443;28;20091;-67
2021/11/20 07:07:21;;;;;;;27.45;13.77;;;;;;;4.20;100.00;96418.91;4943804;28;20113;-67
2021/11/20 07:10:07;;;;;;;24.52;13.43;;;;;;;4.17;100.00;96421.66;4929648;29;20475;-74
2021/11/20 07:12:55;;;;;;;27.33;15.32;;;;;;;4.32;100.00;96413.06;4947774;29;20094;-65
2021/11/20 07:15:40;;;;;;;29.15;16.95;;;;;;;4.42;100.00;96419.53;4939330;29;20050;-69
2021/11/20 07:18:26;;;;;;;35.65;18.90;;;;;;;4.51;100.00;96408.63;4960338;28;20135;-68
2021/11/20 07:21:30;;;;;;;27.90;16.17;;;;;;;4.39;100.00;96406.56;4949012;28;20058;-66
2021/11/20 07:24:39;;;;;;;27.05;16.27;;;;;;;4.28;100.00;96401.03;4938107;28;20054;-66
2021/11/20 07:27:26;;;;;;;27.58;16.00;;;;;;;4.46;100.00;96405.34;4940689;28;20054;-68
2021/11/20 07:30:16;;;;;;;19.20;11.60;;;;;;;4.37;100.00;96404.06;4911865;28;20074;-69
2021/11/20 07:33:09;;;;;;;20.33;12.85;;;;;;;4.13;100.00;96399.16;4946645;28;20194;-65
2021/11/20 07:36:03;;;;;;;18.33;10.85;;;;;;;4.24;100.00;96402.09;4943443;28;20090;-65
2021/11/20 07:39:00;;;;;;;18.35;10.60;;;;;;;4.14;100.00;96401.69;4945651;28;20058;-65
2021/11/20 07:41:47;;;;;;;16.30;9.52;;;;;;;3.96;100.00;96401.75;4945056;28;20050;-64
2021/11/20 07:44:38;;;;;;;13.65;8.52;;;;;;;3.96;100.00;96407.81;4944751;28;20054;-64
2021/11/20 07:47:22;;;;;;;14.80;9.13;;;;;;;3.99;100.00;96409.44;4929992;28;20110;-67
2021/11/20 07:50:08;;;;;;;;;;;;;;;3.79;100.00;96404.28;4944760;28;20062;-67
2021/11/20 07:52:55;;;;;;;11.75;6.40;;;;;;;3.76;100.00;96400.03;4955500;28;19929;-72
2021/11/20 07:55:45;;;;;;;12.23;5.72;;;;;;;3.85;100.00;96397.00;4944459;28;20090;-67
2021/11/20 07:58:34;;;;;;;9.18;4.93;;;;;;;3.86;100.00;96396.09;4933042;28;20197;-66
2021/11/20 08:01:24;;;;;;;10.48;5.10;;;;;;;3.88;100.00;96398.63;4945978;29;20109;-67
2021/11/20 08:04:09;;;;;;;7.55;4.63;;;;;;;4.09;100.00;96394.97;4930833;28;20138;-69
2021/11/20 08:07:08;;;;;;;8.25;4.03;;;;;;;4.24;100.00;96397.69;4933803;28;20509;-64
2021/11/20 08:10:00;;;;;;;6.20;3.70;;;;;;;4.30;100.00;96386.91;4942320;29;20195;-72
2021/11/20 08:12:52;;;;;;;9.82;4.53;;;;;;;4.50;100.00;96392.03;4943722;28;20055;-67
2021/11/20 08:16:16;;;;;;;7.82;4.13;;;;;;;4.76;100.00;96402.03;4904570;29;20151;-66
2021/11/20 08:19:17;;;;;;;7.10;3.67;;;;;;;5.06;100.00;96399.59;4911247;29;20062;-68
2021/11/20 08:22:19;;;;;;;6.95;3.55;;;;;;;4.96;100.00;96395.78;4910673;29;20170;-68
2021/11/20 08:25:08;;;;;;;14.77;4.63;;;;;;;4.87;100.00;96401.50;4924977;29;20062;-71
2021/11/20 08:27:55;;;;;;;8.50;4.32;;;;;;;5.04;100.00;96407.56;4926328;29;20062;-67
2021/11/20 08:30:46;;;;;;;7.50;4.05;;;;;;;5.20;100.00;96409.41;4925349;29;20122;-67
2021/11/20 08:33:33;;;;;;;6.60;4.10;;;;;;;5.18;100.00;96409.47;4922197;29;20055;-72
2021/11/20 08:36:42;;;;;;;7.93;4.85;;;;;;;4.90;100.00;96409.19;4924181;29;20187;-65
2021/11/20 08:39:48;;;;;;;10.35;5.70;;;;;;;4.80;100.00;96405.38;4915863;29;20584;-65
2021/11/20 08:42:35;;;;;;;11.85;6.78;;;;;;;4.80;100.00;96414.06;4926121;29;20058;-68
2021/11/20 08:45:27;;;;;;;10.55;6.35;;;;;;;4.87;100.00;96412.00;4910385;29;20066;-73
2021/11/20 08:48:16;;;;;;;13.15;7.15;;;;;;;4.90;100.00;96412.69;4956789;28;20066;-68
2021/11/20 08:51:12;;;;;;;13.82;7.55;;;;;;;5.16;100.00;96413.97;4933007;28;20062;-67
2021/11/20 08:54:03;;;;;;;16.15;7.30;;;;;;;5.19;100.00;96410.31;4943181;28;20066;-66
2021/11/20 08:56:52;;;;;;;12.65;6.85;;;;;;;5.25;100.00;96416.09;4942211;28;20604;-69
2021/11/20 08:59:42;;;;;;;14.52;6.15;;;;;;;5.26;100.00;96423.03;4943728;28;20069;-66
2021/11/20 09:02:38;;;;;;;10.50;5.95;;;;;;;5.26;100.00;96419.59;4943364;28;20054;-73
2021/11/20 09:05:56;;;;;;;10.00;5.07;;;;;;;5.03;100.00;96420.78;4943913;28;20051;-64
2021/11/20 09:09:18;;;;;;;8.98;3.88;;;;;;;5.03;100.00;96435.69;4937296;28;20102;-69
2021/11/20 09:12:18;;;;;;;6.40;3.28;;;;;;;4.75;100.00;96425.75;4942491;28;20122;-70
2021/11/20 09:15:30;;;;;;;8.25;3.08;;;;;;;4.63;100.00;96429.81;4916389;29;20110;-69
2021/11/20 09:18:30;;;;;;;6.32;3.55;;;;;;;4.52;100.00;96429.50;4941882;28;20546;-73
2021/11/20 09:21:16;;;;;;;3.75;2.30;;;;;;;4.59;100.00;96435.31;4955818;28;20054;-73
2021/11/20 09:24:10;;;;;;;;;;;;;;;4.50;100.00;96435.75;4935922;28;20042;-69
2021/11/20 09:26:59;;;;;;;3.70;2.15;;;;;;;4.39;100.00;96440.66;4954872;28;20283;-70
2021/11/20 09:29:45;;;;;;;5.43;2.80;;;;;;;4.44;100.00;96457.88;4943355;28;20050;-72
2021/11/20 09:32:30;;;;;;;4.70;2.20;;;;;;;4.39;100.00;96452.00;4941192;28;20565;-74
2021/11/20 09:35:27;;;;;;;3.13;2.50;;;;;;;4.36;100.00;96465.25;4954293;28;20059;-68
2021/11/20 09:38:34;;;;;;;6.82;2.65;;;;;;;4.33;100.00;96467.19;4940987;28;20513;-68
2021/11/20 09:41:49;;;;;;;4.57;2.38;;;;;;;4.47;100.00;96455.09;4936620;28;20141;-70
2021/11/20 09:44:40;;;;;;;6.32;2.70;;;;;;;4.46;100.00;96479.66;4933343;28;20058;-70
2021/11/20 09:47:36;;;;;;;5.65;2.78;;;;;;;4.48;100.00;96488.28;4937207;28;20530;-72
2021/11/20 09:50:38;;;;;;;8.73;2.97;;;;;;;4.39;100.00;96485.25;4928784;28;20099;-65
2021/11/20 09:53:24;;;;;;;6.20;2.67;;;;;;;4.41;100.00;96489.50;4945731;28;20066;-67
2021/11/20 09:56:23;;;;;;;5.93;2.90;;;;;;;4.50;100.00;96490.81;4943864;28;20527;-69
2021/11/20 09:59:27;;;;;;;5.60;2.38;;;;;;;4.38;100.00;96497.53;4952056;28;20054;-72
2021/11/20 10:02:16;;;;;;;6.22;2.60;;;;;;;4.21;100.00;96492.25;4958291;28;20081;-68
2021/11/20 10:05:14;;;;;;;6.78;2.92;;;;;;;4.26;100.00;96508.59;4947324;28;20420;-67
2021/11/20 10:08:12;;;;;;;6.60;2.72;;;;;;;4.36;100.00;96507.22;4959162;28;20371;-63
2021/11/20 10:11:21;;;;;;;3.70;2.17;;;;;;;4.30;100.00;96527.63;4944547;28;20194;-71
2021/11/20 10:14:16;;;;;;;5.07;2.25;;;;;;;4.19;100.00;96530.78;4960551;28;20194;-65
2021/11/20 10:17:24;;;;;;;;;;;;;;;4.12;100.00;96544.25;4945549;28;20069;-63
2021/11/20 10:20:36;;;;;;;5.47;2.78;;;;;;;4.20;100.00;96555.22;4939578;28;19925;-63
2021/11/20 10:23:43;;;;;;;6.78;3.22;;;;;;;4.15;100.00;96570.28;4947710;28;20149;-64
2021/11/20 10:26:50;;;;;;;5.70;3.00;;;;;;;4.18;100.00;96557.91;4929696;29;20119;-66
2021/11/20 10:29:59;;;;;;;4.53;2.78;;;;;;;4.19;100.00;96571.84;4927520;28;20050;-63
2021/11/20 10:32:55;;;;;;;4.50;2.97;;;;;;;4.33;100.00;96574.69;4943312;28;20061;-62
2021/11/20 10:35:49;;;;;;;7.82;2.80;;;;;;;4.20;100.00;96578.81;4922020;28;20423;-62
2021/11/20 10:38:52;;;;;;;5.75;2.95;;;;;;;4.25;100.00;96587.31;4939734;28;20130;-74
2021/11/20 10:41:44;;;;;;;4.07;2.88;;;;;;;4.13;100.00;96587.88;4946654;29;20105;-63
2021/11/20 10:44:37;;;;;;;3.70;2.25;;;;;;;4.10;100.00;96598.50;4918388;29;20046;-70
2021/11/20 10:47:34;;;;;;;3.58;2.50;;;;;;;4.11;100.00;96601.03;4945263;28;20082;-65
2021/11/20 10:50:45;;;;;;;4.30;2.47;;;;;;;4.14;100.00;96614.03;4951171;28;20439;-64
2021/11/20 10:53:46;;;;;;;3.40;2.38;;;;;;;4.09;100.00;96604.66;4959608;28;20109;-63
2021/11/20 10:57:01;;;;;;;4.57;2.50;;;;;;;3.96;100.00;96614.81;4948916;28;20218;-59
2021/11/20 11:00:05;;;;;;;5.30;2.60;;;;;;;4.03;100.00;96629.38;4947468;29;20054;-65
2021/11/20 11:03:23;;;;;;;4.00;2.28;;;;;;;3.96;100.00;96646.28;4939876;28;20070;-64
2021/11/20 11:06:37;;;;;;;4.05;1.80;;;;;;;4.03;100.00;96654.72;4942896;28;20182;-64
2021/11/20 11:10:02;;;;;;;3.42;1.85;;;;;;;4.03;100.00;96662.56;4920944;29;20099;-63
2021/11/20 11:13:10;;;;;;;2.60;1.60;;;;;;;4.00;100.00;96674.06;4883380;29;20054;-62
2021/11/20 11:16:21;;;;;;;2.72;1.70;;;;;;;3.86;100.00;96671.19;4904092;29;20102;-64
2021/11/20 11:19:23;;;;;;;2.92;1.83;;;;;;;3.89;100.00;96675.44;4923927;29;20118;-71
2021/11/20 11:22:39;;;;;;;3.38;1.67;;;;;;;3.91;100.00;96684.94;4894801;29;20512;-62
2021/11/20 11:25:33;;;;;;;2.95;1.60;;;;;;;3.85;100.00;96700.06;4904699;29;20162;-71
2021/11/20 11:28:34;;;;;;;2.00;1.10;;;;;;;3.89;100.00;96688.53;4909919;29;20074;-66
2021/11/20 11:31:39;;;;;;;3.10;1.45;;;;;;;3.99;100.00;96705.56;4880821;29;20087;-67
2021/11/20 11:34:26;;;;;;;;;;;;;;;3.89;100.00;96710.38;4915286;29;20059;-67
2021/11/20 11:37:24;;;;;;;2.47;0.90;;;;;;;3.89;100.00;96722.59;4907501;29;19950;-66
2021/11/20 11:40:56;;;;;;;2.20;1.08;;;;;;;3.78;100.00;96723.06;4893329;29;20560;-66
2021/11/20 11:44:11;;;;;;;5.32;1.20;;;;;;;3.81;100.00;96737.81;4870065;29;20114;-66
2021/11/20 11:47:03;;;;;;;2.15;1.10;;;;;;;3.76;100.00;96752.88;4876651;29;20055;-63
2021/11/20 11:50:02;;;;;;;4.70;1.30;;;;;;;3.74;100.00;96757.31;4886683;29;20063;-66
2021/11/20 11:52:54;;;;;;;3.40;1.27;;;;;;;3.71;100.00;96784.47;4882784;29;20084;-65
2021/11/20 11:55:49;;;;;;;1.88;1.17;;;;;;;3.66;100.00;96783.81;4886481;29;20805;-70
2021/11/20 11:59:10;;;;;;;3.15;1.05;;;;;;;3.80;100.00;96793.75;4836855;29;20478;-66
2021/11/20 12:01:54;;;;;;;2.03;1.42;;;;;;;3.69;100.00;96811.66;4887014;29;20425;-65
2021/11/20 12:04:48;;;;;;;3.33;1.30;;;;;;;3.59;100.00;96823.41;4883507;29;20140;-66
2021/11/20 12:07:45;;;;;;;2.42;1.40;;;;;;;3.62;100.00;96821.53;4849882;29;20513;-66
2021/11/20 12:10:58;;;;;;;2.60;1.02;;;;;;;3.59;100.00;96828.63;4889816;29;20055;-66
2021/11/20 12:13:53;;;;;;;4.15;1.25;;;;;;;3.52;100.00;96835.88;4912141;29;20205;-68
2021/11/20 12:16:51;;;;;;;1.67;1.20;;;;;;;3.62;100.00;96852.97;4961492;28;20049;-68
2021/11/20 12:19:48;;;;;;;4.25;1.30;;;;;;;3.62;100.00;96867.81;4947163;28;21021;-66
2021/11/20 12:23:13;;;;;;;1.63;0.90;;;;;;;3.67;100.00;96861.50;4959742;28;20054;-65
2021/11/20 12:26:12;;;;;;;1.85;1.13;;;;;;;3.64;100.00;96892.19;4936294;29;20054;-68
2021/11/20 12:28:59;;;;;;;2.15;1.00;;;;;;;3.61;100.00;96881.84;4912991;29;20104;-65
2021/11/20 12:31:55;;;;;;;1.95;1.17;;;;;;;3.66;100.00;96906.94;4934743;29;20118;-65
2021/11/20 12:34:45;;;;;;;2.45;1.25;;;;;;;3.63;100.00;96906.19;4947170;28;20121;-65
2021/11/20 12:38:01;;;;;;;3.53;1.00;;;;;;;3.55;100.00;96930.06;4930852;29;20161;-68
2021/11/20 12:40:55;;;;;;;3.42;1.05;;;;;;;3.52;100.00;96927.56;4925634;29;20053;-64
2021/11/20 12:44:08;;;;;;;2.60;1.00;;;;;;;3.68;100.00;96935.69;4943565;28;20522;-66
2021/11/20 12:47:14;;;;;;;2.90;0.95;;;;;;;3.59;100.00;96936.91;4952658;28;20781;-65
2021/11/20 12:50:01;;;;;;;2.28;0.80;;;;;;;3.62;100.00;96928.06;4937869;28;20069;-65
2021/11/20 12:52:47;;;;;;;3.03;0.93;;;;;;;3.63;100.00;96956.81;4939866;28;20178;-64
2021/11/20 12:55:42;;;;;;;2.88;0.80;;;;;;;3.69;100.00;96966.22;4952745;28;20114;-67
2021/11/20 12:58:39;;;;;;;2.33;1.20;;;;;;;3.67;100.00;96975.88;4948259;28;20047;-64
2021/11/20 13:01:38;;;;;;;2.05;0.90;;;;;;;3.71;100.00;96986.19;4941545;28;20578;-66
2021/11/20 13:04:47;;;;;;;2.15;1.13;;;;;;;3.73;100.00;96970.44;4944389;28;20149;-65
2021/11/20 13:07:37;;;;;;;2.60;0.82;;;;;;;3.61;100.00;96948.16;4948677;28;20455;-68
2021/11/20 13:10:30;;;;;;;1.25;0.80;;;;;;;3.52;100.00;96971.25;4952028;28;20049;-65
2021/11/20 13:13:44;;;;;;;1.42;0.80;;;;;;;3.68;100.00;96993.34;4948412;28;20087;-64
2021/11/20 13:16:28;;;;;;;1.77;1.30;;;;;;;3.64;100.00;97023.16;4957619;28;20482;-66
2021/11/20 13:19:23;;;;;;;2.58;1.77;;;;;;;3.76;100.00;97005.22;4942323;28;20077;-67
2021/11/20 13:22:14;;;;;;;3.13;1.75;;;;;;;3.74;100.00;97009.69;4952618;28;20080;-67
2021/11/20 13:25:15;;;;;;;4.80;1.40;;;;;;;3.76;100.00;97020.94;4954346;28;20050;-67
2021/11/20 13:28:04;;;;;;;3.33;1.40;;;;;;;3.88;100.00;97030.97;4956907;28;20057;-65
2021/11/20 13:30:49;;;;;;;1.65;1.00;;;;;;;3.65;100.00;97035.34;4946431;28;20093;-60
2021/11/20 13:33:38;;;;;;;2.08;0.70;;;;;;;3.60;100.00;97043.38;4934951;28;20089;-63
2021/11/20 13:36:22;;;;;;;3.60;1.30;;;;;;;3.67;100.00;97057.97;4931126;28;20479;-64
2021/11/20 13:39:10;;;;;;;;;;;;;;;3.74;100.00;97067.31;4960614;28;20105;-64
2021/11/20 13:42:01;;;;;;;2.08;1.20;;;;;;;3.69;100.00;97071.00;4932664;28;19928;-68
2021/11/20 13:44:51;;;;;;;1.98;0.80;;;;;;;3.72;100.00;97070.91;4952278;28;20105;-67